createdAt,value
2023-04-02T00:01:05.912Z,65.81
2023-04-02T00:03:44.971Z,65.63
2023-04-02T00:06:45.060Z,65.81
2023-04-02T00:09:14.613Z,66.23
2023-04-02T00:11:44.566Z,66.07
2023-04-02T00:14:34.987Z,66.17
2023-04-02T00:17:04.795Z,65.85
2023-04-02T00:19:47.540Z,66.08
2023-04-02T00:22:20.231Z,65.85
2023-04-02T00:24:50.220Z,65.64
2023-04-02T00:27:16.859Z,65.88
2023-04-02T00:29:51.708Z,65.59
2023-04-02T00:32:30.640Z,65.82
2023-04-02T00:34:58.461Z,66.05
2023-04-02T00:37:28.711Z,65.40
2023-04-02T00:40:02.082Z,65.32
2023-04-02T00:42:31.121Z,65.62
2023-04-02T00:44:58.808Z,65.55
2023-04-02T00:47:32.571Z,65.79
2023-04-02T00:50:06.534Z,65.52
2023-04-02T00:52:34.862Z,65.50
2023-04-02T00:55:08.040Z,65.67
2023-04-02T00:57:34.980Z,65.62
2023-04-02T01:00:15.932Z,65.71
2023-04-02T01:02:42.586Z,65.00
2023-04-02T01:05:15.041Z,65.39
2023-04-02T01:07:51.179Z,65.18
2023-04-02T01:10:26.318Z,65.45
2023-04-02T01:13:10.851Z,65.16
2023-04-02T01:15:48.949Z,65.29
2023-04-02T01:18:31.396Z,65.32
2023-04-02T01:21:17.682Z,64.68
2023-04-02T01:23:58.016Z,64.86
2023-04-02T01:26:46.468Z,64.83
2023-04-02T01:29:27.169Z,64.62
2023-04-02T01:31:55.863Z,64.52
2023-04-02T01:34:26.686Z,64.71
2023-04-02T01:36:58.133Z,64.88
2023-04-02T01:39:36.640Z,64.71
2023-04-02T01:42:15.849Z,64.44
2023-04-02T01:45:09.183Z,64.11
2023-04-02T01:47:35.807Z,64.40
2023-04-02T01:50:24.326Z,64.04
2023-04-02T01:52:55.065Z,63.21
2023-04-02T01:55:31.470Z,63.17
2023-04-02T01:58:00.167Z,63.23
2023-04-02T02:00:30.063Z,63.17
2023-04-02T02:02:56.944Z,62.98
2023-04-02T02:05:23.821Z,62.81
2023-04-02T02:07:51.985Z,62.76
2023-04-02T02:10:25.718Z,62.75
2023-04-02T02:12:52.518Z,62.94
2023-04-02T02:15:21.778Z,62.67
2023-04-02T02:17:49.379Z,62.72
2023-04-02T02:20:16.614Z,62.75
2023-04-02T02:22:48.652Z,62.32
2023-04-02T02:25:18.979Z,62.69
2023-04-02T02:28:07.760Z,62.23
2023-04-02T02:30:47.440Z,62.45
2023-04-02T02:33:37.092Z,62.10
2023-04-02T02:36:09.578Z,62.40
2023-04-02T02:38:57.399Z,62.58
2023-04-02T02:41:42.726Z,62.06
2023-04-02T02:44:09.046Z,62.58
2023-04-02T02:46:43.692Z,63.01
2023-04-02T02:49:16.904Z,62.99
2023-04-02T02:51:58.876Z,62.40
2023-04-02T02:54:27.073Z,62.04
2023-04-02T02:56:59.875Z,62.73
2023-04-02T02:59:30.101Z,62.56
2023-04-02T03:01:57.379Z,62.30
2023-04-02T03:04:25.148Z,62.18
2023-04-02T03:06:57.497Z,62.07
2023-04-02T03:09:48.076Z,62.05
2023-04-02T03:12:32.683Z,62.10
2023-04-02T03:15:34.335Z,62.10
2023-04-02T03:18:08.011Z,62.31
2023-04-02T03:20:41.133Z,62.33
2023-04-02T03:23:20.501Z,62.26
2023-04-02T03:26:07.882Z,62.02
2023-04-02T03:28:43.464Z,62.43
2023-04-02T03:31:26.375Z,61.53
2023-04-02T03:33:59.498Z,61.66
2023-04-02T03:36:38.415Z,61.76
2023-04-02T03:39:14.817Z,61.65
2023-04-02T03:41:53.190Z,61.74
2023-04-02T03:44:44.014Z,61.41
2023-04-02T03:47:14.987Z,61.58
2023-04-02T03:49:48.197Z,61.95
2023-04-02T03:52:24.467Z,62.15
2023-04-02T03:54:54.020Z,61.95
2023-04-02T03:57:34.221Z,62.17
2023-04-02T04:00:29.452Z,62.33
2023-04-02T04:03:01.482Z,62.13
2023-04-02T04:05:36.022Z,61.97
2023-04-02T04:08:08.150Z,61.80
2023-04-02T04:10:35.469Z,61.68
2023-04-02T04:13:11.398Z,61.87
2023-04-02T04:15:51.516Z,61.37
2023-04-02T04:18:39.795Z,61.21
2023-04-02T04:21:30.759Z,61.19
2023-04-02T04:24:05.969Z,61.19
2023-04-02T04:26:49.501Z,61.28
2023-04-02T04:29:46.486Z,61.37
2023-04-02T04:32:33.981Z,61.27
2023-04-02T04:35:31.764Z,61.33
2023-04-02T04:38:04.797Z,61.21
2023-04-02T04:40:37.886Z,61.52
2023-04-02T04:43:12.187Z,61.63
2023-04-02T04:45:47.871Z,61.61
2023-04-02T04:48:27.348Z,61.45
2023-04-02T04:50:55.992Z,61.43
2023-04-02T04:53:25.299Z,61.64
2023-04-02T04:56:12.479Z,61.33
2023-04-02T04:59:16.509Z,61.52
2023-04-02T05:01:48.359Z,61.86
2023-04-02T05:04:22.004Z,61.33
2023-04-02T05:07:02.940Z,61.34
2023-04-02T05:09:41.568Z,61.75
2023-04-02T05:12:22.265Z,61.44
2023-04-02T05:15:02.036Z,61.66
2023-04-02T05:17:28.400Z,61.29
2023-04-02T05:20:00.788Z,61.50
2023-04-02T05:22:42.354Z,61.11
2023-04-02T05:25:28.252Z,61.66
2023-04-02T05:28:19.787Z,61.22
2023-04-02T05:31:02.980Z,61.16
2023-04-02T05:33:32.940Z,61.34
2023-04-02T05:36:05.659Z,61.65
2023-04-02T05:38:35.478Z,61.32
2023-04-02T05:41:14.209Z,61.76
2023-04-02T05:43:46.295Z,61.54
2023-04-02T05:46:28.003Z,61.11
2023-04-02T05:48:59.132Z,61.47
2023-04-02T05:51:45.670Z,61.20
2023-04-02T05:54:49.071Z,61.51
2023-04-02T05:57:20.418Z,61.39
2023-04-02T05:59:54.032Z,61.46
2023-04-02T06:02:39.357Z,61.39
2023-04-02T06:05:13.327Z,61.43
2023-04-02T06:07:52.713Z,61.45
2023-04-02T06:10:32.305Z,61.21
2023-04-02T06:13:07.651Z,61.03
2023-04-02T06:15:37.061Z,60.66
2023-04-02T06:18:13.363Z,60.93
2023-04-02T06:20:39.820Z,60.99
2023-04-02T06:23:24.142Z,60.60
2023-04-02T06:25:57.890Z,60.52
2023-04-02T06:28:36.050Z,60.65
2023-04-02T06:31:10.040Z,59.93
2023-04-02T06:33:36.971Z,59.71
2023-04-02T06:36:05.403Z,60.09
2023-04-02T06:38:34.183Z,60.13
2023-04-02T06:41:05.640Z,59.94
2023-04-02T06:43:47.792Z,59.90
2023-04-02T06:46:20.933Z,59.36
2023-04-02T06:48:51.334Z,59.40
2023-04-02T06:51:20.582Z,59.40
2023-04-02T06:53:49.013Z,59.63
2023-04-02T06:56:42.226Z,58.81
2023-04-02T06:59:09.445Z,58.86
2023-04-02T07:01:41.565Z,58.89
2023-04-02T07:04:10.180Z,59.27
2023-04-02T07:06:36.518Z,59.12
2023-04-02T07:09:03.895Z,58.83
2023-04-02T07:11:30.573Z,59.18
2023-04-02T07:13:56.939Z,59.10
2023-04-02T07:16:27.908Z,58.89
2023-04-02T07:19:02.958Z,59.05
2023-04-02T07:21:29.899Z,58.62
2023-04-02T07:23:56.524Z,58.44
2023-04-02T07:26:27.315Z,58.34
2023-04-02T07:28:55.104Z,58.14
2023-04-02T07:31:25.713Z,57.87
2023-04-02T07:33:54.282Z,58.16
2023-04-02T07:36:23.559Z,58.33
2023-04-02T07:38:50.670Z,58.14
2023-04-02T07:41:19.722Z,58.33
2023-04-02T07:43:46.204Z,57.78
2023-04-02T07:46:16.507Z,57.55
2023-04-02T07:48:44.126Z,57.83
2023-04-02T07:51:19.592Z,57.97
2023-04-02T07:53:50.056Z,58.26
2023-04-02T07:56:19.640Z,57.70
2023-04-02T07:58:46.765Z,57.12
2023-04-02T08:01:35.298Z,57.23
2023-04-02T08:04:04.172Z,57.11
2023-04-02T08:06:31.364Z,56.62
2023-04-02T08:08:58.719Z,55.95
2023-04-02T08:11:25.336Z,55.51
2023-04-02T08:13:52.200Z,55.25
2023-04-02T08:16:18.854Z,55.69
2023-04-02T08:18:47.449Z,55.11
2023-04-02T08:21:16.226Z,55.41
2023-04-02T08:23:43.448Z,55.41
2023-04-02T08:26:09.797Z,54.72
2023-04-02T08:28:36.144Z,54.65
2023-04-02T08:31:04.846Z,54.35
2023-04-02T08:33:31.432Z,54.20
2023-04-02T08:35:57.940Z,53.92
2023-04-02T08:38:25.329Z,53.81
2023-04-02T08:40:56.292Z,54.27
2023-04-02T08:43:56.431Z,54.80
2023-04-02T08:46:28.674Z,54.18
2023-04-02T08:49:01.988Z,54.81
2023-04-02T08:51:32.615Z,54.74
2023-04-02T08:54:06.407Z,54.60
2023-04-02T08:56:40.816Z,54.77
2023-04-02T08:59:24.476Z,54.18
2023-04-02T09:02:07.908Z,54.27
2023-04-02T09:04:34.611Z,53.77
2023-04-02T09:07:01.207Z,53.50
2023-04-02T09:09:28.059Z,53.18
2023-04-02T09:12:01.250Z,54.08
2023-04-02T09:14:42.616Z,53.83
2023-04-02T09:17:21.750Z,53.90
2023-04-02T09:20:17.141Z,53.07
2023-04-02T09:22:47.018Z,52.91
2023-04-02T09:25:17.663Z,52.93
2023-04-02T09:27:48.721Z,52.61
2023-04-02T09:30:39.295Z,51.42
2023-04-02T09:33:09.536Z,50.98
2023-04-02T09:35:53.149Z,51.34
2023-04-02T09:38:31.650Z,51.48
2023-04-02T09:41:01.443Z,51.98
2023-04-02T09:43:31.156Z,51.92
2023-04-02T09:46:20.539Z,51.64
2023-04-02T09:48:54.514Z,51.66
2023-04-02T09:51:25.758Z,51.41
2023-04-02T09:54:04.281Z,51.73
2023-04-02T09:56:32.585Z,51.22
2023-04-02T09:59:21.899Z,50.96
2023-04-02T10:01:54.288Z,51.17
2023-04-02T10:04:29.684Z,50.63
2023-04-02T10:06:57.962Z,50.39
2023-04-02T10:09:36.432Z,50.54
2023-04-02T10:12:06.416Z,49.86
2023-04-02T10:14:46.518Z,50.06
2023-04-02T10:17:19.836Z,49.90
2023-04-02T10:19:55.370Z,50.19
2023-04-02T10:22:23.103Z,50.01
2023-04-02T10:24:50.683Z,49.50
2023-04-02T10:27:43.061Z,48.92
2023-04-02T10:30:44.686Z,45.94
2023-04-02T10:33:37.073Z,45.97
2023-04-02T10:36:19.360Z,47.19
2023-04-02T10:38:56.775Z,46.40
2023-04-02T10:41:35.909Z,46.57
2023-04-02T10:44:24.104Z,46.96
2023-04-02T10:47:03.744Z,47.98
2023-04-02T10:49:48.061Z,48.09
2023-04-02T10:52:29.477Z,47.52
2023-04-02T10:55:02.409Z,47.77
2023-04-02T10:57:42.108Z,47.27
2023-04-02T11:00:25.992Z,47.78
2023-04-02T11:03:01.048Z,48.47
2023-04-02T11:06:12.368Z,48.27
2023-04-02T11:08:46.088Z,48.54
2023-04-02T11:11:17.179Z,49.01
2023-04-02T11:13:50.347Z,49.30
2023-04-02T11:16:16.982Z,49.10
2023-04-02T11:19:03.385Z,49.42
2023-04-02T11:21:58.135Z,49.95
2023-04-02T11:24:37.035Z,49.27
2023-04-02T11:27:14.507Z,48.93
2023-04-02T11:29:43.676Z,48.89
2023-04-02T11:32:22.098Z,48.72
2023-04-02T11:34:53.828Z,48.46
2023-04-02T11:37:43.856Z,48.25
2023-04-02T11:40:16.298Z,47.23
2023-04-02T11:42:47.144Z,46.88
2023-04-02T11:45:28.526Z,46.39
2023-04-02T11:48:01.432Z,46.29
2023-04-02T11:50:35.952Z,46.52
2023-04-02T11:53:06.679Z,46.13
2023-04-02T11:55:35.462Z,46.75
2023-04-02T11:58:26.826Z,47.12
2023-04-02T12:01:22.520Z,46.63
2023-04-02T12:04:16.489Z,46.79
2023-04-02T12:06:55.035Z,46.54
2023-04-02T12:09:26.725Z,47.18
2023-04-02T12:11:59.787Z,47.60
2023-04-02T12:14:45.622Z,47.52
2023-04-02T12:17:21.397Z,47.87
2023-04-02T12:19:54.495Z,47.58
2023-04-02T12:22:24.829Z,46.53
2023-04-02T12:24:54.725Z,46.21
2023-04-02T12:27:27.438Z,46.18
2023-04-02T12:29:55.555Z,46.02
2023-04-02T12:32:29.811Z,46.38
2023-04-02T12:34:58.215Z,45.87
2023-04-02T12:37:29.437Z,45.44
2023-04-02T12:40:02.459Z,45.15
2023-04-02T12:42:38.004Z,44.86
2023-04-02T12:45:06.984Z,44.71
2023-04-02T12:47:33.649Z,44.23
2023-04-02T12:50:01.804Z,45.07
2023-04-02T12:52:29.356Z,45.37
2023-04-02T12:54:58.338Z,45.42
2023-04-02T12:57:27.677Z,45.70
2023-04-02T13:00:27.544Z,44.39
2023-04-02T13:03:01.884Z,43.85
2023-04-02T13:05:39.496Z,43.81
2023-04-02T13:08:06.127Z,42.60
2023-04-02T13:10:33.234Z,42.44
2023-04-02T13:13:02.457Z,42.74
2023-04-02T13:15:31.950Z,43.15
2023-04-02T13:18:22.644Z,44.07
2023-04-02T13:20:59.378Z,43.92
2023-04-02T13:23:28.774Z,44.04
2023-04-02T13:26:17.238Z,44.77
2023-04-02T13:29:28.644Z,45.14
2023-04-02T13:31:59.312Z,45.04
2023-04-02T13:34:26.340Z,44.51
2023-04-02T13:36:53.213Z,44.28
2023-04-02T13:39:20.503Z,44.12
2023-04-02T13:41:55.724Z,44.51
2023-04-02T13:44:27.941Z,44.41
2023-04-02T13:46:55.585Z,44.07
2023-04-02T13:49:24.144Z,43.93
2023-04-02T13:51:54.561Z,43.92
2023-04-02T13:54:29.507Z,43.82
2023-04-02T13:56:56.384Z,43.53
2023-04-02T13:59:23.900Z,43.51
2023-04-02T14:01:53.266Z,43.15
2023-04-02T14:04:27.351Z,43.22
2023-04-02T14:07:33.260Z,43.14
2023-04-02T14:10:01.645Z,43.49
2023-04-02T14:12:41.324Z,44.18
2023-04-02T14:15:07.843Z,43.45
2023-04-02T14:17:55.915Z,43.76
2023-04-02T14:20:31.106Z,43.00
2023-04-02T14:23:00.539Z,43.08
2023-04-02T14:25:46.111Z,43.68
2023-04-02T14:28:27.208Z,43.71
2023-04-02T14:31:07.484Z,43.93
2023-04-02T14:34:11.678Z,44.16
2023-04-02T14:37:38.160Z,43.30
2023-04-02T14:40:10.255Z,43.93
2023-04-02T14:43:03.256Z,44.20
2023-04-02T14:46:02.827Z,44.05
2023-04-02T14:48:56.089Z,43.95
2023-04-02T14:51:43.431Z,44.27
2023-04-02T14:54:22.344Z,44.05
2023-04-02T14:56:59.230Z,43.30
2023-04-02T14:59:32.814Z,43.20
2023-04-02T15:02:30.550Z,43.46
2023-04-02T15:05:03.100Z,43.53
2023-04-02T15:07:39.041Z,43.49
2023-04-02T15:10:17.157Z,44.75
2023-04-02T15:12:45.114Z,43.42
2023-04-02T15:15:38.989Z,43.31
2023-04-02T15:18:10.795Z,43.33
2023-04-02T15:20:50.494Z,43.18
2023-04-02T15:23:24.904Z,43.83
2023-04-02T15:26:09.980Z,43.19
2023-04-02T15:28:44.823Z,42.89
2023-04-02T15:31:15.254Z,42.33
2023-04-02T15:34:10.160Z,42.24
2023-04-02T15:37:02.949Z,41.39
2023-04-02T15:39:45.873Z,41.09
2023-04-02T15:42:27.694Z,41.51
2023-04-02T15:45:12.219Z,42.20
2023-04-02T15:47:53.953Z,41.26
2023-04-02T15:50:38.968Z,41.46
2023-04-02T15:53:15.242Z,41.25
2023-04-02T15:55:49.662Z,41.45
2023-04-02T15:58:25.568Z,41.31
2023-04-02T16:00:57.946Z,43.21
2023-04-02T16:03:54.743Z,42.22
2023-04-02T16:06:28.401Z,43.19
2023-04-02T16:09:07.354Z,41.97
2023-04-02T16:11:34.351Z,41.76
2023-04-02T16:14:24.595Z,42.40
2023-04-02T16:16:54.501Z,42.04
2023-04-02T16:19:40.054Z,42.04
2023-04-02T16:22:18.148Z,42.20
2023-04-02T16:24:48.640Z,42.18
2023-04-02T16:27:28.901Z,41.94
2023-04-02T16:29:59.089Z,40.91
2023-04-02T16:32:50.246Z,40.64
2023-04-02T16:35:41.715Z,40.59
2023-04-02T16:38:22.195Z,40.72
2023-04-02T16:41:20.019Z,41.16
2023-04-02T16:43:58.496Z,40.80
2023-04-02T16:46:38.987Z,41.02
2023-04-02T16:49:28.116Z,41.55
2023-04-02T16:52:13.624Z,41.32
2023-04-02T16:55:12.409Z,42.01
2023-04-02T16:58:13.974Z,41.91
2023-04-02T17:00:59.206Z,41.23
2023-04-02T17:03:50.058Z,41.17
2023-04-02T17:06:39.490Z,40.75
2023-04-02T17:09:34.897Z,40.89
2023-04-02T17:12:15.972Z,40.88
2023-04-02T17:14:59.367Z,41.09
2023-04-02T17:17:25.851Z,40.92
2023-04-02T17:19:57.173Z,41.37
2023-04-02T17:22:23.580Z,40.69
2023-04-02T17:24:56.708Z,40.79
2023-04-02T17:27:40.912Z,40.96
2023-04-02T17:30:22.495Z,40.36
2023-04-02T17:32:48.854Z,39.99
2023-04-02T17:35:35.602Z,40.18
2023-04-02T17:38:19.784Z,39.17
2023-04-02T17:41:04.523Z,39.41
2023-04-02T17:43:47.931Z,39.58
2023-04-02T17:46:37.951Z,40.00
2023-04-02T17:49:07.284Z,40.25
2023-04-02T17:52:13.653Z,40.13
2023-04-02T17:54:51.634Z,40.48
2023-04-02T17:57:30.378Z,40.61
2023-04-02T18:00:21.583Z,41.11
2023-04-02T18:03:16.459Z,41.23
2023-04-02T18:05:49.403Z,41.09
2023-04-02T18:08:27.353Z,41.23
2023-04-02T18:11:24.186Z,41.32
2023-04-02T18:13:53.493Z,42.22
2023-04-02T18:16:38.152Z,41.54
2023-04-02T18:19:16.913Z,41.30
2023-04-02T18:21:52.256Z,41.67
2023-04-02T18:24:18.584Z,41.44
2023-04-02T18:26:50.643Z,41.53
2023-04-02T18:29:59.944Z,41.80
2023-04-02T18:32:56.103Z,41.96
2023-04-02T18:35:27.262Z,42.16
2023-04-02T18:38:15.498Z,42.39
2023-04-02T18:41:10.839Z,42.98
2023-04-02T18:43:50.771Z,42.56
2023-04-02T18:46:41.746Z,43.02
2023-04-02T18:49:23.895Z,43.26
2023-04-02T18:51:54.966Z,43.17
2023-04-02T18:54:45.652Z,43.30
2023-04-02T18:57:16.221Z,42.97
2023-04-02T18:59:50.953Z,43.13
2023-04-02T19:02:20.448Z,43.00
2023-04-02T19:04:58.041Z,43.16
2023-04-02T19:07:28.168Z,43.38
2023-04-02T19:09:56.203Z,43.43
2023-04-02T19:12:24.052Z,43.25
2023-04-02T19:14:51.927Z,43.38
2023-04-02T19:17:41.819Z,43.67
2023-04-02T19:20:43.880Z,43.42
2023-04-02T19:23:22.366Z,44.22
2023-04-02T19:26:06.072Z,44.33
2023-04-02T19:28:59.937Z,44.33
2023-04-02T19:31:55.032Z,44.50
2023-04-02T19:34:47.488Z,44.33
2023-04-02T19:37:29.423Z,44.16
2023-04-02T19:40:11.592Z,44.69
2023-04-02T19:42:49.150Z,44.63
2023-04-02T19:45:39.430Z,44.57
2023-04-02T19:48:17.419Z,44.42
2023-04-02T19:50:44.612Z,44.17
2023-04-02T19:53:11.304Z,44.55
2023-04-02T19:55:38.067Z,44.25
2023-04-02T19:58:17.650Z,44.70
2023-04-02T20:00:45.836Z,44.41
2023-04-02T20:03:12.197Z,44.62
2023-04-02T20:05:38.703Z,44.39
2023-04-02T20:08:05.525Z,44.41
2023-04-02T20:10:31.868Z,44.61
2023-04-02T20:12:58.197Z,44.40
2023-04-02T20:15:24.724Z,44.63
2023-04-02T20:17:51.168Z,44.87
2023-04-02T20:20:17.561Z,44.43
2023-04-02T20:22:44.038Z,44.44
2023-04-02T20:25:10.760Z,44.48
2023-04-02T20:27:37.111Z,44.46
2023-04-02T20:30:04.691Z,44.50
2023-04-02T20:32:31.229Z,44.57
2023-04-02T20:34:58.053Z,44.55
2023-04-02T20:37:24.469Z,44.90
2023-04-02T20:39:50.884Z,44.69
2023-04-02T20:42:17.258Z,45.13
2023-04-02T20:44:43.715Z,45.05
2023-04-02T20:47:10.960Z,45.36
2023-04-02T20:49:37.509Z,45.36
2023-04-02T20:52:04.111Z,45.98
2023-04-02T20:54:30.505Z,45.75
2023-04-02T20:56:56.939Z,46.02
2023-04-02T20:59:23.398Z,46.26
2023-04-02T21:01:50.049Z,46.38
2023-04-02T21:04:17.256Z,46.25
2023-04-02T21:06:43.643Z,46.42
2023-04-02T21:09:16.063Z,46.50
2023-04-02T21:11:42.925Z,46.49
2023-04-02T21:14:10.168Z,46.89
2023-04-02T21:16:37.045Z,47.31
2023-04-02T21:19:06.427Z,46.93
2023-04-02T21:21:33.956Z,47.48
2023-04-02T21:24:03.052Z,47.53
2023-04-02T21:26:33.482Z,47.74
2023-04-02T21:29:01.301Z,47.56
2023-04-02T21:31:29.944Z,47.82
2023-04-02T21:33:58.485Z,48.25
2023-04-02T21:36:28.035Z,48.03
2023-04-02T21:39:03.002Z,48.12
2023-04-02T21:41:32.616Z,48.58
2023-04-02T21:44:00.706Z,48.08
2023-04-02T21:46:29.244Z,48.51
2023-04-02T21:48:58.319Z,48.94
2023-04-02T21:51:27.568Z,48.79
2023-04-02T21:53:54.393Z,48.88
2023-04-02T21:56:26.153Z,49.17
2023-04-02T21:58:52.901Z,49.12
2023-04-02T22:01:27.152Z,49.34
2023-04-02T22:03:59.117Z,49.63
2023-04-02T22:06:27.878Z,49.89
2023-04-02T22:08:57.041Z,50.05
2023-04-02T22:11:29.133Z,50.17
2023-04-02T22:13:55.611Z,50.10
2023-04-02T22:16:24.863Z,50.39
2023-04-02T22:18:52.974Z,50.21
2023-04-02T22:21:19.791Z,50.63
2023-04-02T22:23:47.288Z,50.29
2023-04-02T22:26:15.774Z,50.57
2023-04-02T22:28:42.128Z,50.77
2023-04-02T22:31:12.152Z,51.01
2023-04-02T22:33:39.719Z,50.95
2023-04-02T22:36:06.531Z,50.89
2023-04-02T22:38:34.206Z,50.97
2023-04-02T22:41:12.752Z,51.33
2023-04-02T22:43:42.755Z,51.65
2023-04-02T22:46:10.909Z,51.60
2023-04-02T22:48:39.624Z,51.98
2023-04-02T22:51:07.733Z,51.96
2023-04-02T22:53:35.368Z,51.93
2023-04-02T22:56:08.532Z,51.76
2023-04-02T22:58:35.572Z,52.33
2023-04-02T23:01:05.411Z,52.42
2023-04-02T23:03:31.888Z,52.52
2023-04-02T23:06:04.267Z,52.53
2023-04-02T23:08:30.837Z,52.38
2023-04-02T23:11:18.558Z,52.52
2023-04-02T23:13:46.548Z,52.75
2023-04-02T23:16:14.109Z,53.11
2023-04-02T23:18:42.362Z,53.08
2023-04-02T23:21:09.761Z,52.99
2023-04-02T23:23:36.528Z,52.93
2023-04-02T23:26:21.799Z,53.40
2023-04-02T23:28:49.096Z,53.42
2023-04-02T23:31:18.086Z,53.17
2023-04-02T23:33:45.388Z,53.27
2023-04-02T23:36:20.931Z,53.61
2023-04-02T23:38:47.518Z,53.14
2023-04-02T23:41:16.224Z,53.61
2023-04-02T23:43:43.157Z,53.34
2023-04-02T23:46:09.606Z,53.80
2023-04-02T23:48:36.102Z,53.58
2023-04-02T23:51:02.534Z,53.80
2023-04-02T23:53:28.863Z,53.78
2023-04-02T23:55:55.569Z,54.13
2023-04-02T23:58:22.020Z,54.35
